createdAt,value
2019-05-15T00:02:18.377Z,9.30
2019-05-15T00:05:19.667Z,9.30
2019-05-15T00:08:21.162Z,9.30
2019-05-15T00:11:22.391Z,9.30
2019-05-15T00:14:24.147Z,9.30
2019-05-15T00:17:25.465Z,9.30
2019-05-15T00:20:29.446Z,9.30
2019-05-15T00:23:30.439Z,9.30
2019-05-15T00:26:31.823Z,9.40
2019-05-15T00:29:33.147Z,9.30
2019-05-15T00:32:34.990Z,9.30
2019-05-15T00:35:38.978Z,9.40
2019-05-15T00:38:39.637Z,9.40
2019-05-15T00:41:50.841Z,9.40
2019-05-15T00:44:44.339Z,9.40
2019-05-15T00:47:45.615Z,9.50
2019-05-15T00:50:48.565Z,9.50
2019-05-15T00:53:49.921Z,9.50
2019-05-15T00:56:51.606Z,9.50
2019-05-15T00:59:52.875Z,9.50
2019-05-15T01:02:54.344Z,9.50
2019-05-15T01:05:55.596Z,9.50
2019-05-15T01:08:58.873Z,9.60
2019-05-15T01:12:00.352Z,9.60
2019-05-15T01:15:03.832Z,9.60
2019-05-15T01:18:05.102Z,9.60
2019-05-15T01:21:08.370Z,9.60
2019-05-15T01:24:09.627Z,9.60
2019-05-15T01:27:11.099Z,9.60
2019-05-15T01:30:12.406Z,9.60
2019-05-15T01:33:13.870Z,9.60
2019-05-15T01:36:15.123Z,9.60
2019-05-15T01:39:18.478Z,9.60
2019-05-15T01:42:19.872Z,9.60
2019-05-15T01:45:21.335Z,9.60
2019-05-15T01:48:22.600Z,9.50
2019-05-15T01:51:23.971Z,9.50
2019-05-15T01:54:25.276Z,9.50
2019-05-15T01:57:28.596Z,9.50
2019-05-15T02:00:29.812Z,9.50
2019-05-15T02:03:31.084Z,9.50
2019-05-15T02:06:32.339Z,9.50
2019-05-15T02:09:34.838Z,9.50
2019-05-15T02:12:38.762Z,9.50
2019-05-15T02:15:39.854Z,9.50
2019-05-15T02:18:41.239Z,9.50
2019-05-15T02:21:42.498Z,9.50
2019-05-15T02:24:44.000Z,9.50
2019-05-15T02:27:45.244Z,9.50
2019-05-15T02:30:50.036Z,9.50
2019-05-15T02:33:50.172Z,9.60
2019-05-15T02:36:51.647Z,9.50
2019-05-15T02:39:52.911Z,9.60
2019-05-15T02:42:54.372Z,9.60
2019-05-15T02:45:55.653Z,9.60
2019-05-15T02:48:59.184Z,9.60
2019-05-15T02:52:00.441Z,9.60
2019-05-15T02:55:03.423Z,9.60
2019-05-15T02:58:04.687Z,9.60
2019-05-15T03:01:09.040Z,9.60
2019-05-15T03:04:09.446Z,9.60
2019-05-15T03:07:10.675Z,9.60
2019-05-15T03:10:14.823Z,9.60
2019-05-15T03:13:18.787Z,9.60
2019-05-15T03:16:19.693Z,9.60
2019-05-15T03:19:21.103Z,9.60
2019-05-15T03:22:22.551Z,9.60
2019-05-15T03:25:23.904Z,9.70
2019-05-15T03:28:25.190Z,9.60
2019-05-15T03:31:43.676Z,9.60
2019-05-15T03:34:37.463Z,9.60
2019-05-15T03:37:34.119Z,9.60
2019-05-15T03:40:55.625Z,9.60
2019-05-15T03:43:59.606Z,9.70
2019-05-15T03:47:00.197Z,9.70
2019-05-15T03:50:02.984Z,9.70
2019-05-15T03:53:04.275Z,9.70
2019-05-15T03:56:05.547Z,9.70
2019-05-15T03:59:09.360Z,9.70
2019-05-15T04:02:10.345Z,9.70
2019-05-15T04:05:12.365Z,9.70
2019-05-15T04:08:13.971Z,9.80
2019-05-15T04:11:15.228Z,9.80
2019-05-15T04:14:19.350Z,9.70
2019-05-15T04:17:20.081Z,9.80
2019-05-15T04:20:21.667Z,9.80
2019-05-15T04:23:22.919Z,9.80
2019-05-15T04:26:28.406Z,9.80
2019-05-15T04:29:29.099Z,9.80
2019-05-15T04:32:30.595Z,9.80
2019-05-15T04:35:31.878Z,9.80
2019-05-15T04:38:33.331Z,9.90
2019-05-15T04:41:35.058Z,9.90
2019-05-15T04:44:39.245Z,9.90
2019-05-15T04:47:40.119Z,10.00
2019-05-15T04:50:41.813Z,10.00
2019-05-15T04:53:43.091Z,10.10
2019-05-15T04:56:44.739Z,10.10
2019-05-15T04:59:46.076Z,10.10
2019-05-15T05:02:49.621Z,10.10
2019-05-15T05:05:51.102Z,10.20
2019-05-15T05:08:52.787Z,10.20
2019-05-15T05:11:54.317Z,10.20
2019-05-15T05:14:55.575Z,10.30
2019-05-15T05:17:58.547Z,10.30
2019-05-15T05:21:00.000Z,10.30
2019-05-15T05:24:01.471Z,10.30
2019-05-15T05:27:02.827Z,10.30
2019-05-15T05:30:04.731Z,10.30
2019-05-15T05:33:08.351Z,10.30
2019-05-15T05:36:09.590Z,10.40
2019-05-15T05:39:13.608Z,10.40
2019-05-15T05:42:14.068Z,10.40
2019-05-15T05:45:18.052Z,10.40
2019-05-15T05:48:19.278Z,10.40
2019-05-15T05:51:20.710Z,10.40
2019-05-15T05:54:23.019Z,10.40
2019-05-15T05:57:24.310Z,10.40
2019-05-15T06:00:34.847Z,10.50
2019-05-15T06:03:35.967Z,10.50
2019-05-15T06:06:38.411Z,10.40
2019-05-15T06:09:39.952Z,10.40
2019-05-15T06:12:41.428Z,10.40
2019-05-15T06:15:42.700Z,10.40
2019-05-15T06:18:44.190Z,10.40
2019-05-15T06:21:54.693Z,10.40
2019-05-15T06:24:49.002Z,10.40
2019-05-15T06:27:51.096Z,10.40
2019-05-15T06:30:53.751Z,10.50
2019-05-15T06:33:55.121Z,10.50
2019-05-15T06:36:58.746Z,10.60
2019-05-15T06:39:59.774Z,10.80
2019-05-15T06:43:01.206Z,11.00
2019-05-15T06:46:02.928Z,11.10
2019-05-15T06:49:04.646Z,11.20
2019-05-15T06:52:05.950Z,11.30
2019-05-15T06:55:09.067Z,11.30
2019-05-15T06:58:10.512Z,11.30
2019-05-15T07:01:12.638Z,11.30
2019-05-15T07:04:13.967Z,11.30
2019-05-15T07:07:18.043Z,11.30
2019-05-15T07:10:18.967Z,11.30
2019-05-15T07:13:20.606Z,11.30
2019-05-15T07:16:22.005Z,11.20
2019-05-15T07:19:23.659Z,11.30
2019-05-15T07:22:25.788Z,11.30
2019-05-15T07:29:18.844Z,11.20
2019-05-15T07:36:00.722Z,11.40
2019-05-15T07:39:08.376Z,11.50
2019-05-15T07:42:13.254Z,11.60
2019-05-15T07:45:19.822Z,11.70
2019-05-15T07:48:31.380Z,11.70
2019-05-15T07:51:37.969Z,11.90
2019-05-15T07:54:38.995Z,12.00
2019-05-15T07:57:41.351Z,12.00
2019-05-15T08:00:43.134Z,12.10
2019-05-15T08:03:56.536Z,11.70
2019-05-15T08:06:54.270Z,12.20
2019-05-15T08:09:58.849Z,12.10
2019-05-15T08:12:59.234Z,12.10
2019-05-15T08:16:00.659Z,12.00
2019-05-15T08:19:02.447Z,12.10
2019-05-15T08:22:04.237Z,12.10
2019-05-15T08:25:07.610Z,12.10
2019-05-15T08:28:09.220Z,12.20
2019-05-15T08:31:11.490Z,12.20
2019-05-15T08:34:16.311Z,12.20
2019-05-15T08:37:18.126Z,12.30
2019-05-15T08:40:20.179Z,12.30
2019-05-15T08:43:22.440Z,12.30
2019-05-15T08:46:23.938Z,12.10
2019-05-15T08:49:25.230Z,12.10
2019-05-15T08:52:28.314Z,12.00
2019-05-15T08:55:29.793Z,12.00
2019-05-15T08:58:31.395Z,12.00
2019-05-15T09:01:32.637Z,11.90
2019-05-15T09:04:35.176Z,11.80
2019-05-15T09:07:38.327Z,11.90
2019-05-15T09:10:41.339Z,11.90
2019-05-15T09:13:44.313Z,11.90
2019-05-15T09:16:48.775Z,11.80
2019-05-15T09:19:49.662Z,12.10
2019-05-15T09:22:51.218Z,12.20
2019-05-15T09:25:52.476Z,12.20
2019-05-15T09:28:53.948Z,12.20
2019-05-15T09:31:55.342Z,12.40
2019-05-15T09:34:59.332Z,12.50
2019-05-15T09:38:00.754Z,12.70
2019-05-15T09:41:02.032Z,12.20
2019-05-15T09:44:03.543Z,12.80
2019-05-15T09:47:04.836Z,12.80
2019-05-15T09:50:09.690Z,12.30
2019-05-15T09:53:11.069Z,12.60
2019-05-15T09:56:12.553Z,12.60
2019-05-15T09:59:13.843Z,12.60
2019-05-15T10:02:15.344Z,12.70
2019-05-15T10:05:18.535Z,12.70
2019-05-15T10:08:21.225Z,12.50
2019-05-15T10:11:22.895Z,12.60
2019-05-15T10:14:25.036Z,11.80
2019-05-15T10:17:33.007Z,12.50
2019-05-15T10:20:34.440Z,12.60
2019-05-15T10:23:36.091Z,12.70
2019-05-15T10:26:39.346Z,12.70
2019-05-15T10:29:40.644Z,12.80
2019-05-15T10:32:42.487Z,12.90
2019-05-15T10:35:43.927Z,12.90
2019-05-15T10:38:45.277Z,13.00
2019-05-15T10:41:48.217Z,13.00
2019-05-15T10:44:50.011Z,13.10
2019-05-15T10:47:51.391Z,13.20
2019-05-15T10:50:52.750Z,13.40
2019-05-15T10:53:54.197Z,13.50
2019-05-15T10:56:55.445Z,13.80
2019-05-15T10:59:58.430Z,14.00
2019-05-15T11:02:59.771Z,14.10
2019-05-15T11:06:01.166Z,14.20
2019-05-15T11:09:04.640Z,14.30
2019-05-15T11:12:08.599Z,14.20
2019-05-15T11:15:11.407Z,14.30
2019-05-15T11:18:12.730Z,14.20
2019-05-15T11:21:14.142Z,14.20
2019-05-15T11:24:15.396Z,14.20
2019-05-15T11:27:18.993Z,14.00
2019-05-15T11:30:27.524Z,13.90
2019-05-15T11:33:33.685Z,13.90
2019-05-15T11:36:34.921Z,13.90
2019-05-15T11:39:44.606Z,13.90
2019-05-15T11:42:39.584Z,13.80
2019-05-15T11:45:41.801Z,13.80
2019-05-15T11:48:43.066Z,13.80
2019-05-15T11:51:44.526Z,13.90
2019-05-15T11:54:45.806Z,13.90
2019-05-15T11:57:50.454Z,14.10
2019-05-15T12:00:50.537Z,14.00
2019-05-15T12:03:54.014Z,13.90
2019-05-15T12:06:59.616Z,13.80
2019-05-15T12:09:58.606Z,13.90
2019-05-15T12:12:59.874Z,13.90
2019-05-15T12:16:01.139Z,14.00
2019-05-15T12:19:09.144Z,14.00
2019-05-15T12:22:05.675Z,14.00
2019-05-15T12:25:09.742Z,14.00
2019-05-15T12:28:11.136Z,14.20
2019-05-15T12:31:12.425Z,14.20
2019-05-15T12:34:14.543Z,14.30
2019-05-15T12:37:15.775Z,14.40
2019-05-15T13:01:41.092Z,13.70
2019-05-15T13:04:42.576Z,13.70
2019-05-15T13:07:43.818Z,13.80
2019-05-15T13:10:45.113Z,13.90
2019-05-15T13:13:48.367Z,14.00
2019-05-15T13:16:49.467Z,14.00
2019-05-15T13:19:51.015Z,14.10
2019-05-15T13:22:53.035Z,14.20
2019-05-15T13:25:54.304Z,14.40
2019-05-15T13:28:58.098Z,14.50
2019-05-15T13:31:59.255Z,14.50
2019-05-15T13:35:00.673Z,14.60
2019-05-15T13:38:02.363Z,14.70
2019-05-15T13:41:06.540Z,14.60
2019-05-15T13:44:09.037Z,14.70
2019-05-15T13:47:10.759Z,14.90
2019-05-15T13:50:11.990Z,15.20
2019-05-15T13:53:15.333Z,15.40
2019-05-15T13:56:18.274Z,15.40
2019-05-15T13:59:20.287Z,15.30
2019-05-15T14:02:22.072Z,15.40
2019-05-15T14:05:24.305Z,15.50
2019-05-15T14:08:28.545Z,16.00
2019-05-15T14:11:30.969Z,16.40
2019-05-15T14:14:33.331Z,16.70
2019-05-15T14:17:35.145Z,16.60
2019-05-15T14:20:38.725Z,16.80
2019-05-15T14:23:40.372Z,16.90
2019-05-15T14:26:41.888Z,17.00
2019-05-15T14:29:43.542Z,17.20
2019-05-15T14:32:44.824Z,17.30
2019-05-15T14:35:48.332Z,17.70
2019-05-15T14:38:51.490Z,18.20
2019-05-15T14:41:53.493Z,18.70
2019-05-15T14:44:55.074Z,18.50
2019-05-15T14:47:58.415Z,18.50
2019-05-15T14:51:02.520Z,18.30
2019-05-15T14:54:08.923Z,18.20
2019-05-15T14:57:14.976Z,18.00
2019-05-15T15:00:20.618Z,17.90
2019-05-15T15:03:23.858Z,17.80
2019-05-15T15:06:26.851Z,17.60
2019-05-15T15:09:33.041Z,17.30
2019-05-15T15:12:39.745Z,17.20
2019-05-15T15:15:43.315Z,17.10
2019-05-15T15:18:48.424Z,17.00
2019-05-15T15:21:58.009Z,16.90
2019-05-15T15:24:59.871Z,16.90
2019-05-15T15:28:02.418Z,16.80
2019-05-15T15:31:06.383Z,16.80
2019-05-15T15:34:10.276Z,16.80
2019-05-15T15:37:13.078Z,16.70
2019-05-15T15:40:15.127Z,16.70
2019-05-15T15:43:17.355Z,16.60
2019-05-15T15:46:20.055Z,16.40
2019-05-15T15:49:22.046Z,16.20
2019-05-15T15:52:28.985Z,16.10
2019-05-15T15:55:30.311Z,16.00
2019-05-15T15:58:33.027Z,15.30
2019-05-15T16:01:36.114Z,15.90
2019-05-15T16:04:39.377Z,15.80
2019-05-15T16:07:43.373Z,15.70
2019-05-15T16:10:44.253Z,15.50
2019-05-15T16:13:46.444Z,15.40
2019-05-15T16:16:48.801Z,15.30
2019-05-15T16:19:50.285Z,15.10
2019-05-15T16:22:52.199Z,14.90
2019-05-15T16:25:53.704Z,14.90
2019-05-15T16:32:11.378Z,14.40
2019-05-15T16:35:20.032Z,14.20
2019-05-15T16:38:21.495Z,14.10
2019-05-15T16:41:23.573Z,13.90
2019-05-15T16:44:25.232Z,14.00
2019-05-15T16:47:28.007Z,14.00
2019-05-15T16:50:30.610Z,14.00
2019-05-15T16:53:31.947Z,14.00
2019-05-15T16:56:37.354Z,14.00
2019-05-15T16:59:39.939Z,14.00
2019-05-15T17:02:42.696Z,13.90
2019-05-15T17:05:44.210Z,13.90
2019-05-15T17:08:45.674Z,13.80
2019-05-15T17:11:49.175Z,13.70
2019-05-15T17:14:51.653Z,13.70
2019-05-15T17:17:53.079Z,13.70
2019-05-15T17:20:54.718Z,13.60
2019-05-15T17:23:58.301Z,13.50
2019-05-15T17:27:00.505Z,13.50
2019-05-15T17:30:02.834Z,13.50
2019-05-15T17:33:04.931Z,13.50
2019-05-15T17:36:06.420Z,13.40
2019-05-15T17:39:09.000Z,13.40
2019-05-15T17:42:10.604Z,13.40
2019-05-15T17:45:12.304Z,13.40
2019-05-15T17:48:19.642Z,13.40
2019-05-15T17:51:21.586Z,13.40
2019-05-15T17:54:23.710Z,13.30
2019-05-15T17:57:28.468Z,13.30
2019-05-15T18:00:30.365Z,13.30
2019-05-15T18:03:32.272Z,13.20
2019-05-15T18:06:39.900Z,13.20
2019-05-15T18:09:51.557Z,13.20
2019-05-15T18:12:44.866Z,13.20
2019-05-15T18:15:46.109Z,13.20
2019-05-15T18:18:47.980Z,13.20
2019-05-15T18:21:50.520Z,13.20
2019-05-15T18:24:52.795Z,13.20
2019-05-15T18:27:58.760Z,13.20
2019-05-15T18:30:58.996Z,13.10
2019-05-15T18:34:00.907Z,13.10
2019-05-15T18:37:04.399Z,13.10
2019-05-15T18:40:11.201Z,13.10
2019-05-15T18:43:13.686Z,13.10
2019-05-15T18:46:18.185Z,13.10
2019-05-15T18:49:21.303Z,13.10
2019-05-15T18:52:23.810Z,13.10
2019-05-15T18:55:27.557Z,13.10
2019-05-15T18:58:29.793Z,13.10
2019-05-15T19:01:31.949Z,13.10
2019-05-15T19:04:33.833Z,13.10
2019-05-15T19:07:38.308Z,13.00
2019-05-15T19:10:39.474Z,13.00
2019-05-15T19:13:40.962Z,13.00
2019-05-15T19:16:42.378Z,13.00
2019-05-15T19:19:45.034Z,13.00
2019-05-15T19:22:48.486Z,13.00
2019-05-15T19:25:50.032Z,13.00
2019-05-15T19:28:52.715Z,13.00
2019-05-15T19:31:54.152Z,13.00
2019-05-15T19:34:55.854Z,13.00
2019-05-15T19:37:58.518Z,13.00
2019-05-15T19:41:03.065Z,13.00
2019-05-15T19:44:04.690Z,13.00
2019-05-15T19:47:07.955Z,13.00
2019-05-15T19:50:09.832Z,13.00
2019-05-15T19:53:13.296Z,13.00
2019-05-15T19:56:14.527Z,13.00
2019-05-15T19:59:21.833Z,13.00
2019-05-15T20:02:19.942Z,13.00
2019-05-15T20:05:22.369Z,13.00
2019-05-15T20:08:23.994Z,13.00
2019-05-15T20:11:27.858Z,13.00
2019-05-15T20:14:29.450Z,13.00
2019-05-15T20:17:30.975Z,13.00
2019-05-15T20:20:32.643Z,13.00
2019-05-15T20:23:34.252Z,13.00
2019-05-15T20:26:38.054Z,13.00
2019-05-15T20:29:39.211Z,13.00
2019-05-15T20:32:41.684Z,13.00
2019-05-15T20:36:02.829Z,13.00
2019-05-15T20:39:04.885Z,13.10
2019-05-15T20:42:09.162Z,13.00
2019-05-15T20:45:12.537Z,13.10
2019-05-15T20:48:14.915Z,13.00
2019-05-15T20:51:18.525Z,13.00
2019-05-15T20:54:20.194Z,13.10
2019-05-15T20:57:21.810Z,13.10
2019-05-15T21:00:23.472Z,13.10
2019-05-15T21:03:26.283Z,13.20
2019-05-15T21:06:28.415Z,13.10
2019-05-15T21:09:30.721Z,13.20
2019-05-15T21:12:33.306Z,13.20
2019-05-15T21:15:35.351Z,13.20
2019-05-15T21:18:38.028Z,13.30
2019-05-15T21:21:39.417Z,13.30
2019-05-15T21:24:40.658Z,13.30
2019-05-15T21:27:43.724Z,13.30
2019-05-15T21:30:45.472Z,13.30
2019-05-15T21:33:48.121Z,13.30
2019-05-15T21:36:52.102Z,13.40
2019-05-15T21:39:53.479Z,13.40
2019-05-15T21:42:54.797Z,13.40
2019-05-15T21:45:56.262Z,13.40
2019-05-15T21:48:57.689Z,13.50
2019-05-15T21:52:00.924Z,13.50
2019-05-15T21:55:03.505Z,13.60
2019-05-15T21:58:04.866Z,13.60
2019-05-15T22:01:08.092Z,13.70
2019-05-15T22:07:29.689Z,13.80
2019-05-15T22:10:32.169Z,13.80
2019-05-15T22:13:34.014Z,13.90
2019-05-15T22:16:36.792Z,13.90
2019-05-15T22:19:38.718Z,14.00
2019-05-15T22:22:40.514Z,14.00
2019-05-15T22:25:43.926Z,14.00
2019-05-15T22:28:45.343Z,14.10
2019-05-15T22:31:48.681Z,14.10
2019-05-15T22:35:05.657Z,14.10
2019-05-15T22:37:54.059Z,14.10
2019-05-15T22:40:56.295Z,14.20
2019-05-15T22:43:57.745Z,14.20
2019-05-15T22:46:59.195Z,14.20
2019-05-15T22:50:00.708Z,14.20
2019-05-15T22:53:02.353Z,14.20
2019-05-15T22:56:03.770Z,14.20
2019-05-15T22:59:05.003Z,14.20
2019-05-15T23:02:09.162Z,14.20
2019-05-15T23:05:23.778Z,14.20
2019-05-15T23:08:13.188Z,14.20
2019-05-15T23:11:14.480Z,14.20
2019-05-15T23:14:17.997Z,14.20
2019-05-15T23:17:19.214Z,14.20
2019-05-15T23:20:20.653Z,14.20
2019-05-15T23:23:22.059Z,14.30
2019-05-15T23:26:23.593Z,14.30
2019-05-15T23:29:25.405Z,14.30
2019-05-15T23:32:28.905Z,14.30
2019-05-15T23:35:37.957Z,14.30
2019-05-15T23:38:33.653Z,14.20
2019-05-15T23:41:34.887Z,14.20
2019-05-15T23:44:38.207Z,14.20
2019-05-15T23:47:39.493Z,14.20
2019-05-15T23:50:41.382Z,14.20
2019-05-15T23:53:42.605Z,14.20
2019-05-15T23:56:43.969Z,14.30
2019-05-15T23:59:47.622Z,14.20
